^^
Datos históricos de la estación: Murcia-Puente Tocinos
Diario Informe para Junio 5, 2021 Unidades:  Ingés    Métrico   Ambas
Diario Semanal Mensual Anual
  Máxima: Mínima: Promedio:
Temperatura: 65.1 °F 56.1 °F 60.1 °F
Punto de rocio: 48.9 °F 46.2 °F 47.5 °F
Humedad: 74.2% 51% 63%
Velocidad viento: 6.2mph 1.4mph 3.9mph
Racha viento: 10.4mph - -
Viento- - SSO
Presión: 30.1 in 30.1 in -
Precipitación: 0 in    
 
 
Tabla de datos para Junio 5, 2021
Hora Temperatura Punto de rocio Presión Viento Velocidad viento Racha viento Humedad Intensidad lluvia(por hora) Nubes
00:04 65.1 °F 46.6 °F 30.1 in SSO 4 mph 5.8 mph 51% 0 in
00:09 64.9 °F 46.8 °F 30.1 in SSO 3.9 mph 4.7 mph 52% 0 in
00:14 64.8 °F 46.8 °F 30.1 in SSO 3.6 mph 3.5 mph 52% 0 in
00:19 64.8 °F 47.1 °F 30.1 in SSO 2.9 mph 4.7 mph 52.9% 0 in
00:24 64.6 °F 47.1 °F 30.1 in SSO 1.8 mph 5.2 mph 53% 0 in
00:29 64.6 °F 47.1 °F 30.1 in SSO 2.2 mph 4.6 mph 53% 0 in
00:34 64.6 °F 47.1 °F 30.1 in Sur 2.9 mph 5.2 mph 53% 0 in
00:39 64.6 °F 47.3 °F 30.1 in SE 3 mph 5.2 mph 53.5% 0 in
00:44 64 °F 47.5 °F 30.1 in SE 3.1 mph 5.2 mph 54.6% 0 in
00:49 63.9 °F 47.8 °F 30.1 in SE 3 mph 6.2 mph 56% 0 in
00:54 63.3 °F 47.8 °F 30.1 in SSE 2.9 mph 7.4 mph 57% 0 in
00:59 63 °F 47.8 °F 30.1 in SSE 3.7 mph 7.4 mph 58% 0 in
01:04 62.6 °F 47.8 °F 30.1 in Sur 4.7 mph 6.9 mph 58.4% 0 in
01:09 62.6 °F 47.7 °F 30.1 in SSO 4.7 mph 6.9 mph 58% 0 in
01:14 63 °F 47.7 °F 30.1 in SO 4.7 mph 8.1 mph 57.4% 0 in
01:19 63 °F 47.3 °F 30.1 in SO 4.5 mph 7.4 mph 56.4% 0 in
01:24 63.1 °F 47.1 °F 30.1 in SO 4.3 mph 6.9 mph 56% 0 in
01:29 63.1 °F 46.9 °F 30.1 in OSO 4.2 mph 5.9 mph 55.4% 0 in
01:34 63.1 °F 46.8 °F 30.1 in OSO 4 mph 5.4 mph 55.2% 0 in
01:39 63 °F 47.1 °F 30.1 in SO 3.7 mph 6.2 mph 56% 0 in
01:44 62.8 °F 46.8 °F 30.1 in SSO 3.1 mph 6.9 mph 56% 0 in
01:49 63 °F 46.8 °F 30.1 in Sur 3.5 mph 6.9 mph 55.8% 0 in
01:54 63 °F 46.9 °F 30.1 in SO 4.3 mph 4.7 mph 56% 0 in
01:59 63 °F 46.9 °F 30.1 in SO 3.8 mph 5.2 mph 56% 0 in
02:04 62.8 °F 46.8 °F 30.1 in OSO 3.1 mph 5.2 mph 56% 0 in
02:09 62.6 °F 47.1 °F 30.1 in Oeste 3 mph 4.6 mph 57% 0 in
02:14 62.4 °F 47.1 °F 30.1 in Oeste 2.9 mph 4.7 mph 57.5% 0 in
02:19 62.1 °F 47.3 °F 30.1 in OSO 2.7 mph 5.2 mph 58.2% 0 in
02:24 61.7 °F 47.3 °F 30.1 in OSO 2.4 mph 4.7 mph 59.1% 0 in
02:29 61.5 °F 47.5 °F 30.1 in SO 2.7 mph 6.9 mph 60% 0 in
02:34 61.3 °F 47.3 °F 30.1 in SO 3.1 mph 8.1 mph 59.8% 0 in
02:39 61.5 °F 47.1 °F 30.1 in SO 3.5 mph 6.9 mph 59.1% 0 in
02:44 61.5 °F 47.1 °F 30.1 in SO 4.3 mph 6.4 mph 59% 0 in
02:49 61.5 °F 47.3 °F 30.1 in SO 4 mph 5.8 mph 59.6% 0 in
02:54 61.5 °F 47.7 °F 30.1 in SSE 3.6 mph 4.6 mph 60.5% 0 in
02:59 61.3 °F 48.2 °F 30.1 in ESE 3 mph 2.9 mph 62% 0 in
03:04 61.2 °F 48.4 °F 30.1 in ESE 2 mph 2.9 mph 62.4% 0 in
03:09 61 °F 48.4 °F 30.1 in ESE 1.8 mph 2.9 mph 63% 0 in
03:14 60.8 °F 48 °F 30.1 in SSE 1.4 mph 4.6 mph 63% 0 in
03:19 60.4 °F 47.8 °F 30.1 in OSO 1.6 mph 4.7 mph 63% 0 in
03:24 60.3 °F 47.7 °F 30.1 in SO 2 mph 4.6 mph 63% 0 in
03:29 60.3 °F 47.8 °F 30.1 in SO 2.2 mph 4.6 mph 63.5% 0 in
03:34 60.3 °F 48 °F 30.1 in SSO 2.4 mph 4.7 mph 64% 0 in
03:39 60.1 °F 47.8 °F 30.1 in Sur 2.7 mph 6.2 mph 64% 0 in
03:44 59.9 °F 47.7 °F 30.1 in SSO 3.1 mph 6.9 mph 64.1% 0 in
03:49 59.7 °F 47.8 °F 30.1 in SSO 3.4 mph 5.8 mph 65% 0 in
03:54 59.5 °F 47.8 °F 30.1 in SSO 4 mph 5.8 mph 65% 0 in
03:59 59.5 °F 47.8 °F 30.1 in SSO 4 mph 6.9 mph 65.2% 0 in
04:04 59.4 °F 47.7 °F 30.1 in SSO 4 mph 9.2 mph 65% 0 in
04:09 59.4 °F 47.5 °F 30.1 in SSO 4.5 mph 8.1 mph 64.5% 0 in
04:14 59.4 °F 47.1 °F 30.1 in SSO 5.4 mph 9.2 mph 64% 0 in
04:19 59.4 °F 47.1 °F 30.1 in SSO 5.4 mph 6.9 mph 64% 0 in
04:24 59.4 °F 47.1 °F 30.1 in SSO 5.4 mph 9.2 mph 64% 0 in
04:29 59.4 °F 47.1 °F 30.1 in SSO 5.4 mph 9.2 mph 64% 0 in
04:34 59.4 °F 46.9 °F 30.1 in SSO 5.4 mph 9.2 mph 63.6% 0 in
04:39 59.4 °F 46.8 °F 30.1 in SSO 5.4 mph 10.2 mph 63% 0 in
04:44 59.4 °F 46.8 °F 30.1 in SSO 5.4 mph 10.4 mph 62.7% 0 in
04:49 59.5 °F 46.6 °F 30.1 in SSO 5.7 mph 10.4 mph 62% 0 in
04:54 59.5 °F 46.4 °F 30.1 in SSO 6.2 mph 8.5 mph 61.5% 0 in
04:59 59.7 °F 46.2 °F 30.1 in Sur 6.1 mph 8.1 mph 61% 0 in
05:04 59.9 °F 46.4 °F 30.1 in SSO 5.9 mph 8.1 mph 61% 0 in
05:09 59.7 °F 46.4 °F 30.1 in Sur 5.9 mph 8.1 mph 61.3% 0 in
05:14 59.5 °F 46.6 °F 30.1 in Sur 5.9 mph 8.1 mph 62.1% 0 in
05:19 59.5 °F 46.9 °F 30.1 in SSO 5.5 mph 5.9 mph 63% 0 in
05:24 59.4 °F 46.8 °F 30.1 in SSO 4.7 mph 5.2 mph 63% 0 in
05:29 59.4 °F 47.1 °F 30.1 in SSO 4.4 mph 5.9 mph 64% 0 in
05:34 59.4 °F 47.1 °F 30.1 in SO 4 mph 4.6 mph 64% 0 in
05:39 59.4 °F 47.1 °F 30.1 in SO 3.2 mph 4 mph 64% 0 in
05:44 59.4 °F 47.1 °F 30.1 in SO 2 mph 5.9 mph 64% 0 in
05:49 59.2 °F 46.9 °F 30.1 in SO 2.8 mph 8.1 mph 63.7% 0 in
05:54 59.2 °F 46.8 °F 30.1 in SSO 4 mph 5.9 mph 63.4% 0 in
05:59 59.2 °F 46.9 °F 30.1 in Sur 3.6 mph 4.6 mph 64% 0 in
06:04 59.2 °F 47.1 °F 30.1 in Sur 3.1 mph 4.6 mph 64.3% 0 in
06:09 59.2 °F 47.5 °F 30.1 in SSE 3 mph 5.9 mph 65.4% 0 in
06:14 58.8 °F 48 °F 30.1 in SE 2.9 mph 5.8 mph 67.3% 0 in
06:19 58.3 °F 48.2 °F 30.1 in SE 3.2 mph 6.9 mph 68.9% 0 in
06:24 57.6 °F 48.2 °F 30.1 in SSE 3.6 mph 6.9 mph 70.8% 0 in
06:29 56.8 °F 48.2 °F 30.1 in SSE 4 mph 8.1 mph 72.6% 0 in
06:34 56.5 °F 48.2 °F 30.1 in SSE 4.7 mph 8.1 mph 74% 0 in
06:39 56.1 °F 48 °F 30.1 in Sur 4.9 mph 6.9 mph 74.2% 0 in
06:44 56.1 °F 47.8 °F 30.1 in SSE 5.2 mph 6.9 mph 74% 0 in
06:49 56.3 °F 48.2 °F 30.1 in Sur 5 mph 8.5 mph 74% 0 in
06:54 56.7 °F 48 °F 30.1 in Sur 4.7 mph 9.2 mph 73.3% 0 in
06:59 56.8 °F 48 °F 30.1 in SSO 5 mph 7.6 mph 72.4% 0 in
07:04 57 °F 47.7 °F 30.1 in SSO 5.4 mph 8.1 mph 71% 0 in
07:09 57.4 °F 47.5 °F 30.1 in SO 5.2 mph 6.9 mph 69.8% 0 in
07:14 57.6 °F 47.3 °F 30.1 in SO 4.7 mph 6.9 mph 68.5% 0 in
07:19 57.7 °F 47.1 °F 30.1 in OSO 4.5 mph 6.4 mph 67.8% 0 in
07:24 57.9 °F 46.9 °F 30.1 in OSO 4.3 mph 6.9 mph 67% 0 in
07:29 57.9 °F 46.9 °F 30.1 in OSO 4.3 mph 6.2 mph 67% 0 in
07:34 57.9 °F 46.9 °F 30.1 in SO 4.3 mph 7.4 mph 67% 0 in
07:39 57.9 °F 46.9 °F 30.1 in SSO 4.5 mph 8.7 mph 67% 0 in
07:44 57.9 °F 46.9 °F 30.1 in SSO 4.7 mph 9.2 mph 67% 0 in
07:49 58.1 °F 47.1 °F 30.1 in SSE 4.4 mph 5.2 mph 67% 0 in
07:54 58.1 °F 47.3 °F 30.1 in SE 4 mph 6.2 mph 67.4% 0 in
07:59 57.6 °F 47.5 °F 30.1 in SE 3.9 mph 6.2 mph 68.9% 0 in
08:04 57 °F 47.5 °F 30.1 in SE 3.6 mph 8.1 mph 70.4% 0 in
08:09 56.7 °F 47.5 °F 30.1 in SSE 4 mph 8.1 mph 71.2% 0 in
08:14 56.5 °F 47.7 °F 30.1 in SE 4.7 mph 7.4 mph 72.1% 0 in
08:19 56.5 °F 47.8 °F 30.1 in SE 4.7 mph 5.9 mph 73% 0 in
08:24 56.5 °F 48 °F 30.1 in SE 4.7 mph 4.6 mph 73% 0 in
08:29 56.7 °F 48.2 °F 30.1 in SE 3.8 mph 4.6 mph 73% 0 in
08:34 56.8 °F 48.4 °F 30.1 in Sur 2.4 mph 4.6 mph 73% 0 in
08:39 57.2 °F 48.2 °F 30.1 in SSO 2.6 mph 5.4 mph 71.9% 0 in
08:44 57.6 °F 48 °F 30.1 in Sur 2.9 mph 5.9 mph 70.4% 0 in
08:49 57.9 °F 48 °F 30.1 in SSO 3.2 mph 4.7 mph 69.5% 0 in
08:54 58.5 °F 48.2 °F 30.1 in SSO 3.6 mph 5.4 mph 68.5% 0 in
08:59 58.8 °F 48 °F 30.1 in SSO 3.4 mph 5.8 mph 67.1% 0 in
09:04 59.4 °F 47.8 °F 30.1 in SSO 3.1 mph 5.2 mph 65.6% 0 in
09:09 59.5 °F 47.7 °F 30.1 in Sur 3.3 mph 6.9 mph 64.7% 0 in
09:14 60.1 °F 48.2 °F 30.1 in SSO 3.6 mph 6.2 mph 64.9% 0 in
09:19 60.3 °F 48 °F 30.1 in Sur 3.7 mph 8.1 mph 64% 0 in
09:24 60.3 °F 47.8 °F 30.1 in Sur 4 mph 6.9 mph 63.5% 0 in
09:29 60.3 °F 47.3 °F 30.1 in SSO 4.5 mph 8.1 mph 62.2% 0 in
09:34 60.4 °F 48.2 °F 30.1 in SSE 5.2 mph 6.9 mph 64% 0 in
09:39 60.4 °F 48.9 °F 30.1 in Sur 4.7 mph 5.9 mph 65.9% 0 in
Murcia-Puente Tocinos, España
Compliments of Weather Underground - 2 mb

La estación de MeteoMurcia.com, publica sus datos en los siguientes proyectos:

Weather Underground PWS IMURCIAP2 Meteoclimatic www.awekas.at

W3Counter
Web Analytics